sensor_id;sensor_type;location;lat;lon;timestamp;P1;durP1;ratioP1;P2;durP2;ratioP2
15192;SDS011;7697;51.630;7.484;2022-07-31T00:02:23;1.20;;;1.10;;
15192;SDS011;7697;51.630;7.484;2022-07-31T00:07:24;1.42;;;1.10;;
15192;SDS011;7697;51.630;7.484;2022-07-31T00:12:28;1.55;;;1.10;;
15192;SDS011;7697;51.630;7.484;2022-07-31T00:17:29;1.52;;;1.10;;
15192;SDS011;7697;51.630;7.484;2022-07-31T00:22:31;1.30;;;1.08;;
15192;SDS011;7697;51.630;7.484;2022-07-31T00:27:35;1.23;;;1.13;;
15192;SDS011;7697;51.630;7.484;2022-07-31T00:32:37;1.10;;;1.05;;
15192;SDS011;7697;51.630;7.484;2022-07-31T00:37:39;1.77;;;1.10;;
15192;SDS011;7697;51.630;7.484;2022-07-31T00:42:43;0.93;;;0.93;;
15192;SDS011;7697;51.630;7.484;2022-07-31T00:47:45;2.67;;;1.20;;
15192;SDS011;7697;51.630;7.484;2022-07-31T00:52:46;1.08;;;0.98;;
15192;SDS011;7697;51.630;7.484;2022-07-31T00:57:51;0.98;;;0.90;;
15192;SDS011;7697;51.630;7.484;2022-07-31T01:02:53;1.67;;;1.15;;
15192;SDS011;7697;51.630;7.484;2022-07-31T01:07:55;1.30;;;1.15;;
15192;SDS011;7697;51.630;7.484;2022-07-31T01:13:00;1.90;;;1.20;;
15192;SDS011;7697;51.630;7.484;2022-07-31T01:18:07;1.65;;;1.20;;
15192;SDS011;7697;51.630;7.484;2022-07-31T01:23:16;1.15;;;1.05;;
15192;SDS011;7697;51.630;7.484;2022-07-31T01:34:05;1.23;;;1.00;;
15192;SDS011;7697;51.630;7.484;2022-07-31T01:39:10;1.52;;;1.08;;
15192;SDS011;7697;51.630;7.484;2022-07-31T01:44:14;1.70;;;1.20;;
15192;SDS011;7697;51.630;7.484;2022-07-31T01:49:17;1.20;;;1.10;;
15192;SDS011;7697;51.630;7.484;2022-07-31T01:54:21;1.30;;;1.20;;
15192;SDS011;7697;51.630;7.484;2022-07-31T01:59:25;1.30;;;1.20;;
15192;SDS011;7697;51.630;7.484;2022-07-31T02:04:29;1.63;;;1.30;;
15192;SDS011;7697;51.630;7.484;2022-07-31T02:09:33;1.40;;;1.30;;
15192;SDS011;7697;51.630;7.484;2022-07-31T02:14:37;1.30;;;1.20;;
15192;SDS011;7697;51.630;7.484;2022-07-31T02:19:39;2.40;;;1.58;;
15192;SDS011;7697;51.630;7.484;2022-07-31T02:24:42;1.27;;;1.17;;
15192;SDS011;7697;51.630;7.484;2022-07-31T02:29:45;1.30;;;1.20;;
15192;SDS011;7697;51.630;7.484;2022-07-31T02:34:47;1.30;;;1.15;;
15192;SDS011;7697;51.630;7.484;2022-07-31T02:39:50;2.40;;;1.38;;
15192;SDS011;7697;51.630;7.484;2022-07-31T02:44:54;1.50;;;1.40;;
15192;SDS011;7697;51.630;7.484;2022-07-31T02:49:57;1.83;;;1.30;;
15192;SDS011;7697;51.630;7.484;2022-07-31T02:54:59;3.17;;;1.55;;
15192;SDS011;7697;51.630;7.484;2022-07-31T03:00:13;2.00;;;1.65;;
15192;SDS011;7697;51.630;7.484;2022-07-31T03:05:21;3.20;;;1.50;;
15192;SDS011;7697;51.630;7.484;2022-07-31T03:10:23;1.60;;;1.45;;
15192;SDS011;7697;51.630;7.484;2022-07-31T03:15:27;1.88;;;1.60;;
15192;SDS011;7697;51.630;7.484;2022-07-31T03:20:31;1.85;;;1.60;;
15192;SDS011;7697;51.630;7.484;2022-07-31T03:25:33;1.83;;;1.52;;
15192;SDS011;7697;51.630;7.484;2022-07-31T03:30:37;1.48;;;1.33;;
15192;SDS011;7697;51.630;7.484;2022-07-31T03:35:39;3.85;;;1.48;;
15192;SDS011;7697;51.630;7.484;2022-07-31T03:40:40;2.00;;;1.70;;
15192;SDS011;7697;51.630;7.484;2022-07-31T03:45:44;4.00;;;1.60;;
15192;SDS011;7697;51.630;7.484;2022-07-31T03:50:46;2.67;;;1.67;;
15192;SDS011;7697;51.630;7.484;2022-07-31T03:55:49;1.75;;;1.45;;
15192;SDS011;7697;51.630;7.484;2022-07-31T04:00:53;2.25;;;1.80;;
15192;SDS011;7697;51.630;7.484;2022-07-31T04:05:55;4.28;;;2.00;;
15192;SDS011;7697;51.630;7.484;2022-07-31T04:10:57;1.48;;;1.38;;
15192;SDS011;7697;51.630;7.484;2022-07-31T04:16:00;2.13;;;1.63;;
15192;SDS011;7697;51.630;7.484;2022-07-31T04:21:02;1.98;;;1.38;;
15192;SDS011;7697;51.630;7.484;2022-07-31T04:26:04;3.30;;;1.85;;
15192;SDS011;7697;51.630;7.484;2022-07-31T04:31:07;1.92;;;1.52;;
15192;SDS011;7697;51.630;7.484;2022-07-31T04:36:09;2.45;;;1.50;;
15192;SDS011;7697;51.630;7.484;2022-07-31T04:41:10;2.28;;;1.77;;
15192;SDS011;7697;51.630;7.484;2022-07-31T04:46:13;1.92;;;1.65;;
15192;SDS011;7697;51.630;7.484;2022-07-31T04:51:16;2.25;;;1.58;;
15192;SDS011;7697;51.630;7.484;2022-07-31T04:56:18;2.13;;;1.77;;
15192;SDS011;7697;51.630;7.484;2022-07-31T05:01:42;2.13;;;1.60;;
15192;SDS011;7697;51.630;7.484;2022-07-31T05:06:45;1.80;;;1.67;;
15192;SDS011;7697;51.630;7.484;2022-07-31T05:11:48;2.67;;;1.98;;
15192;SDS011;7697;51.630;7.484;2022-07-31T05:16:52;2.00;;;1.50;;
15192;SDS011;7697;51.630;7.484;2022-07-31T05:21:54;2.13;;;1.73;;
15192;SDS011;7697;51.630;7.484;2022-07-31T05:26:58;3.92;;;1.90;;
15192;SDS011;7697;51.630;7.484;2022-07-31T05:32:01;2.22;;;1.70;;
15192;SDS011;7697;51.630;7.484;2022-07-31T05:37:04;1.90;;;1.73;;
15192;SDS011;7697;51.630;7.484;2022-07-31T05:42:06;2.42;;;1.83;;
15192;SDS011;7697;51.630;7.484;2022-07-31T05:47:09;1.98;;;1.67;;
15192;SDS011;7697;51.630;7.484;2022-07-31T05:52:11;2.47;;;1.63;;
15192;SDS011;7697;51.630;7.484;2022-07-31T05:57:12;1.77;;;1.52;;
15192;SDS011;7697;51.630;7.484;2022-07-31T06:02:15;1.77;;;1.42;;
15192;SDS011;7697;51.630;7.484;2022-07-31T06:07:17;1.85;;;1.65;;
15192;SDS011;7697;51.630;7.484;2022-07-31T06:12:20;2.45;;;1.95;;
15192;SDS011;7697;51.630;7.484;2022-07-31T06:17:23;4.70;;;2.47;;
15192;SDS011;7697;51.630;7.484;2022-07-31T06:22:25;2.30;;;1.77;;
15192;SDS011;7697;51.630;7.484;2022-07-31T06:27:27;1.80;;;1.58;;
15192;SDS011;7697;51.630;7.484;2022-07-31T06:32:30;3.88;;;2.00;;
15192;SDS011;7697;51.630;7.484;2022-07-31T06:37:32;2.58;;;2.00;;
15192;SDS011;7697;51.630;7.484;2022-07-31T06:42:34;2.88;;;2.40;;
15192;SDS011;7697;51.630;7.484;2022-07-31T06:47:37;2.30;;;2.10;;
15192;SDS011;7697;51.630;7.484;2022-07-31T06:52:39;2.00;;;1.80;;
15192;SDS011;7697;51.630;7.484;2022-07-31T06:57:40;5.38;;;2.90;;
15192;SDS011;7697;51.630;7.484;2022-07-31T07:02:44;3.72;;;2.85;;
15192;SDS011;7697;51.630;7.484;2022-07-31T07:07:45;5.03;;;2.63;;
15192;SDS011;7697;51.630;7.484;2022-07-31T07:12:47;2.80;;;2.60;;
15192;SDS011;7697;51.630;7.484;2022-07-31T07:17:50;4.40;;;2.47;;
15192;SDS011;7697;51.630;7.484;2022-07-31T07:22:52;4.68;;;3.35;;
15192;SDS011;7697;51.630;7.484;2022-07-31T07:27:55;4.63;;;2.80;;
15192;SDS011;7697;51.630;7.484;2022-07-31T07:32:58;3.20;;;2.78;;
15192;SDS011;7697;51.630;7.484;2022-07-31T07:38:00;4.05;;;3.10;;
15192;SDS011;7697;51.630;7.484;2022-07-31T07:43:02;3.85;;;2.88;;
15192;SDS011;7697;51.630;7.484;2022-07-31T07:48:06;4.93;;;2.90;;
15192;SDS011;7697;51.630;7.484;2022-07-31T07:53:08;5.45;;;3.13;;
15192;SDS011;7697;51.630;7.484;2022-07-31T07:58:11;3.58;;;3.00;;
15192;SDS011;7697;51.630;7.484;2022-07-31T08:03:15;5.95;;;3.38;;
15192;SDS011;7697;51.630;7.484;2022-07-31T08:08:16;4.38;;;3.00;;
15192;SDS011;7697;51.630;7.484;2022-07-31T08:13:18;4.43;;;3.00;;
15192;SDS011;7697;51.630;7.484;2022-07-31T08:18:21;4.70;;;2.95;;
15192;SDS011;7697;51.630;7.484;2022-07-31T08:23:23;3.90;;;2.70;;
15192;SDS011;7697;51.630;7.484;2022-07-31T08:28:25;3.88;;;2.60;;
15192;SDS011;7697;51.630;7.484;2022-07-31T08:33:28;9.30;;;4.40;;
15192;SDS011;7697;51.630;7.484;2022-07-31T08:38:32;5.80;;;2.95;;
15192;SDS011;7697;51.630;7.484;2022-07-31T08:43:33;2.92;;;2.60;;
15192;SDS011;7697;51.630;7.484;2022-07-31T08:48:38;3.83;;;2.95;;
15192;SDS011;7697;51.630;7.484;2022-07-31T08:53:41;2.92;;;2.60;;
15192;SDS011;7697;51.630;7.484;2022-07-31T08:58:44;3.28;;;2.00;;
15192;SDS011;7697;51.630;7.484;2022-07-31T09:03:48;2.50;;;2.22;;
15192;SDS011;7697;51.630;7.484;2022-07-31T09:08:50;2.42;;;1.85;;
15192;SDS011;7697;51.630;7.484;2022-07-31T09:13:52;2.33;;;1.80;;
15192;SDS011;7697;51.630;7.484;2022-07-31T09:18:56;3.08;;;2.10;;
15192;SDS011;7697;51.630;7.484;2022-07-31T09:23:59;4.72;;;1.70;;
15192;SDS011;7697;51.630;7.484;2022-07-31T09:29:01;2.83;;;1.60;;
15192;SDS011;7697;51.630;7.484;2022-07-31T09:34:08;2.20;;;1.50;;
15192;SDS011;7697;51.630;7.484;2022-07-31T09:39:12;1.95;;;1.45;;
15192;SDS011;7697;51.630;7.484;2022-07-31T09:44:14;3.40;;;1.70;;
15192;SDS011;7697;51.630;7.484;2022-07-31T09:49:17;2.80;;;1.70;;
15192;SDS011;7697;51.630;7.484;2022-07-31T09:54:19;2.75;;;1.45;;
15192;SDS011;7697;51.630;7.484;2022-07-31T09:59:22;2.28;;;1.55;;
15192;SDS011;7697;51.630;7.484;2022-07-31T10:04:27;2.28;;;1.60;;
15192;SDS011;7697;51.630;7.484;2022-07-31T10:09:29;1.77;;;1.52;;
15192;SDS011;7697;51.630;7.484;2022-07-31T10:14:34;2.17;;;1.60;;
15192;SDS011;7697;51.630;7.484;2022-07-31T10:19:40;2.15;;;1.50;;
15192;SDS011;7697;51.630;7.484;2022-07-31T10:24:47;2.47;;;1.77;;
15192;SDS011;7697;51.630;7.484;2022-07-31T10:29:52;1.83;;;1.50;;
15192;SDS011;7697;51.630;7.484;2022-07-31T10:34:56;1.60;;;1.50;;
15192;SDS011;7697;51.630;7.484;2022-07-31T10:40:00;2.75;;;1.83;;
15192;SDS011;7697;51.630;7.484;2022-07-31T10:45:07;3.03;;;1.92;;
15192;SDS011;7697;51.630;7.484;2022-07-31T10:50:20;2.53;;;1.70;;
15192;SDS011;7697;51.630;7.484;2022-07-31T10:55:23;1.50;;;1.30;;
15192;SDS011;7697;51.630;7.484;2022-07-31T11:00:26;1.45;;;1.30;;
15192;SDS011;7697;51.630;7.484;2022-07-31T11:05:29;1.40;;;1.30;;
15192;SDS011;7697;51.630;7.484;2022-07-31T11:10:31;1.65;;;1.30;;
15192;SDS011;7697;51.630;7.484;2022-07-31T11:15:34;1.40;;;1.27;;
15192;SDS011;7697;51.630;7.484;2022-07-31T11:20:38;3.22;;;2.15;;
15192;SDS011;7697;51.630;7.484;2022-07-31T11:25:40;2.13;;;1.80;;
15192;SDS011;7697;51.630;7.484;2022-07-31T11:30:49;2.08;;;1.88;;
15192;SDS011;7697;51.630;7.484;2022-07-31T11:35:54;1.90;;;1.80;;
15192;SDS011;7697;51.630;7.484;2022-07-31T11:40:56;1.73;;;1.63;;
15192;SDS011;7697;51.630;7.484;2022-07-31T11:45:58;1.77;;;1.30;;
15192;SDS011;7697;51.630;7.484;2022-07-31T11:51:01;1.83;;;1.52;;
15192;SDS011;7697;51.630;7.484;2022-07-31T11:56:03;2.08;;;1.88;;
15192;SDS011;7697;51.630;7.484;2022-07-31T12:01:06;1.92;;;1.60;;
15192;SDS011;7697;51.630;7.484;2022-07-31T12:06:09;2.30;;;2.10;;
15192;SDS011;7697;51.630;7.484;2022-07-31T12:11:11;1.90;;;1.63;;
15192;SDS011;7697;51.630;7.484;2022-07-31T12:16:14;2.13;;;1.58;;
15192;SDS011;7697;51.630;7.484;2022-07-31T12:21:19;3.08;;;1.90;;
15192;SDS011;7697;51.630;7.484;2022-07-31T12:26:30;2.08;;;1.88;;
15192;SDS011;7697;51.630;7.484;2022-07-31T12:31:42;2.17;;;1.73;;
15192;SDS011;7697;51.630;7.484;2022-07-31T12:36:46;1.65;;;1.55;;
15192;SDS011;7697;51.630;7.484;2022-07-31T12:41:57;3.42;;;2.20;;
15192;SDS011;7697;51.630;7.484;2022-07-31T12:46:59;3.13;;;2.20;;
15192;SDS011;7697;51.630;7.484;2022-07-31T12:52:02;2.47;;;1.90;;
15192;SDS011;7697;51.630;7.484;2022-07-31T12:57:04;3.75;;;2.38;;
15192;SDS011;7697;51.630;7.484;2022-07-31T13:02:06;3.13;;;2.28;;
15192;SDS011;7697;51.630;7.484;2022-07-31T13:07:09;2.70;;;2.20;;
15192;SDS011;7697;51.630;7.484;2022-07-31T13:12:11;2.42;;;2.15;;
15192;SDS011;7697;51.630;7.484;2022-07-31T13:17:13;3.03;;;2.50;;
15192;SDS011;7697;51.630;7.484;2022-07-31T13:22:16;1.90;;;1.60;;
15192;SDS011;7697;51.630;7.484;2022-07-31T13:27:17;2.72;;;2.17;;
15192;SDS011;7697;51.630;7.484;2022-07-31T13:32:19;5.00;;;2.10;;
15192;SDS011;7697;51.630;7.484;2022-07-31T13:37:22;2.50;;;2.20;;
15192;SDS011;7697;51.630;7.484;2022-07-31T13:42:24;2.78;;;2.03;;
15192;SDS011;7697;51.630;7.484;2022-07-31T13:47:26;2.45;;;2.00;;
15192;SDS011;7697;51.630;7.484;2022-07-31T13:52:29;2.60;;;1.70;;
15192;SDS011;7697;51.630;7.484;2022-07-31T13:57:31;4.25;;;2.75;;
15192;SDS011;7697;51.630;7.484;2022-07-31T14:02:33;2.22;;;2.00;;
15192;SDS011;7697;51.630;7.484;2022-07-31T14:07:36;2.72;;;2.30;;
15192;SDS011;7697;51.630;7.484;2022-07-31T14:12:37;2.13;;;1.95;;
15192;SDS011;7697;51.630;7.484;2022-07-31T14:17:39;2.00;;;1.80;;
15192;SDS011;7697;51.630;7.484;2022-07-31T14:22:42;3.75;;;2.38;;
15192;SDS011;7697;51.630;7.484;2022-07-31T14:27:44;2.72;;;2.20;;
15192;SDS011;7697;51.630;7.484;2022-07-31T14:32:46;2.60;;;2.28;;
15192;SDS011;7697;51.630;7.484;2022-07-31T14:37:50;2.53;;;1.90;;
15192;SDS011;7697;51.630;7.484;2022-07-31T14:42:51;2.80;;;2.00;;
15192;SDS011;7697;51.630;7.484;2022-07-31T14:47:53;3.50;;;2.13;;
15192;SDS011;7697;51.630;7.484;2022-07-31T14:52:56;3.03;;;2.30;;
15192;SDS011;7697;51.630;7.484;2022-07-31T14:57:58;3.20;;;2.50;;
15192;SDS011;7697;51.630;7.484;2022-07-31T15:03:00;4.15;;;2.63;;
15192;SDS011;7697;51.630;7.484;2022-07-31T15:08:03;3.97;;;2.40;;
15192;SDS011;7697;51.630;7.484;2022-07-31T15:13:05;3.65;;;2.50;;
15192;SDS011;7697;51.630;7.484;2022-07-31T15:18:07;4.40;;;3.10;;
15192;SDS011;7697;51.630;7.484;2022-07-31T15:23:10;2.88;;;2.58;;
15192;SDS011;7697;51.630;7.484;2022-07-31T15:28:12;3.80;;;2.40;;
15192;SDS011;7697;51.630;7.484;2022-07-31T15:33:13;2.22;;;2.03;;
15192;SDS011;7697;51.630;7.484;2022-07-31T15:38:16;2.35;;;2.15;;
15192;SDS011;7697;51.630;7.484;2022-07-31T15:43:18;1.85;;;1.70;;
15192;SDS011;7697;51.630;7.484;2022-07-31T15:48:20;4.50;;;3.05;;
15192;SDS011;7697;51.630;7.484;2022-07-31T15:53:24;2.47;;;2.17;;
15192;SDS011;7697;51.630;7.484;2022-07-31T15:58:26;2.33;;;2.00;;
15192;SDS011;7697;51.630;7.484;2022-07-31T16:03:27;1.65;;;1.55;;
15192;SDS011;7697;51.630;7.484;2022-07-31T16:08:31;3.63;;;2.67;;
15192;SDS011;7697;51.630;7.484;2022-07-31T16:13:32;2.25;;;2.05;;
15192;SDS011;7697;51.630;7.484;2022-07-31T16:18:35;2.75;;;2.17;;
15192;SDS011;7697;51.630;7.484;2022-07-31T16:23:38;2.42;;;2.20;;
15192;SDS011;7697;51.630;7.484;2022-07-31T16:28:40;3.88;;;2.78;;
15192;SDS011;7697;51.630;7.484;2022-07-31T16:33:42;2.78;;;2.55;;
15192;SDS011;7697;51.630;7.484;2022-07-31T16:38:45;2.95;;;2.70;;
15192;SDS011;7697;51.630;7.484;2022-07-31T16:43:46;3.58;;;2.65;;
15192;SDS011;7697;51.630;7.484;2022-07-31T16:48:48;3.15;;;2.85;;
15192;SDS011;7697;51.630;7.484;2022-07-31T16:53:51;2.60;;;2.40;;
15192;SDS011;7697;51.630;7.484;2022-07-31T16:58:53;2.60;;;2.40;;
15192;SDS011;7697;51.630;7.484;2022-07-31T17:03:57;4.72;;;2.60;;
15192;SDS011;7697;51.630;7.484;2022-07-31T17:09:01;2.42;;;2.22;;
15192;SDS011;7697;51.630;7.484;2022-07-31T17:14:03;3.00;;;2.70;;
15192;SDS011;7697;51.630;7.484;2022-07-31T17:19:04;3.08;;;2.78;;
15192;SDS011;7697;51.630;7.484;2022-07-31T17:24:07;5.18;;;3.97;;
15192;SDS011;7697;51.630;7.484;2022-07-31T17:29:09;3.35;;;2.88;;
15192;SDS011;7697;51.630;7.484;2022-07-31T17:34:11;4.43;;;2.80;;
15192;SDS011;7697;51.630;7.484;2022-07-31T17:39:15;3.60;;;2.55;;
15192;SDS011;7697;51.630;7.484;2022-07-31T17:44:17;4.13;;;3.13;;
15192;SDS011;7697;51.630;7.484;2022-07-31T17:49:18;3.13;;;2.53;;
15192;SDS011;7697;51.630;7.484;2022-07-31T17:54:22;4.38;;;2.60;;
15192;SDS011;7697;51.630;7.484;2022-07-31T17:59:24;2.42;;;2.22;;
15192;SDS011;7697;51.630;7.484;2022-07-31T18:04:27;2.25;;;2.00;;
15192;SDS011;7697;51.630;7.484;2022-07-31T18:09:32;2.40;;;2.20;;
15192;SDS011;7697;51.630;7.484;2022-07-31T18:14:35;2.85;;;2.55;;
15192;SDS011;7697;51.630;7.484;2022-07-31T18:19:37;2.75;;;2.47;;
15192;SDS011;7697;51.630;7.484;2022-07-31T18:24:40;3.00;;;2.40;;
15192;SDS011;7697;51.630;7.484;2022-07-31T18:29:42;2.00;;;1.90;;
15192;SDS011;7697;51.630;7.484;2022-07-31T18:34:44;2.17;;;2.08;;
15192;SDS011;7697;51.630;7.484;2022-07-31T18:39:47;2.10;;;1.90;;
15192;SDS011;7697;51.630;7.484;2022-07-31T18:44:49;2.65;;;1.90;;
15192;SDS011;7697;51.630;7.484;2022-07-31T18:49:51;2.38;;;1.85;;
15192;SDS011;7697;51.630;7.484;2022-07-31T18:54:54;2.58;;;2.38;;
15192;SDS011;7697;51.630;7.484;2022-07-31T18:59:56;4.10;;;2.95;;
15192;SDS011;7697;51.630;7.484;2022-07-31T19:04:58;4.00;;;3.00;;
15192;SDS011;7697;51.630;7.484;2022-07-31T19:10:02;3.33;;;2.78;;
15192;SDS011;7697;51.630;7.484;2022-07-31T19:15:05;2.78;;;2.13;;
15192;SDS011;7697;51.630;7.484;2022-07-31T19:20:08;2.58;;;2.38;;
15192;SDS011;7697;51.630;7.484;2022-07-31T19:25:13;2.50;;;2.30;;
15192;SDS011;7697;51.630;7.484;2022-07-31T19:30:15;2.17;;;1.98;;
15192;SDS011;7697;51.630;7.484;2022-07-31T19:35:17;1.95;;;1.85;;
15192;SDS011;7697;51.630;7.484;2022-07-31T19:40:20;2.15;;;1.95;;
15192;SDS011;7697;51.630;7.484;2022-07-31T19:45:23;2.20;;;2.00;;
15192;SDS011;7697;51.630;7.484;2022-07-31T19:50:24;2.30;;;2.10;;
15192;SDS011;7697;51.630;7.484;2022-07-31T19:55:28;2.22;;;2.10;;
15192;SDS011;7697;51.630;7.484;2022-07-31T20:00:29;2.55;;;2.35;;
15192;SDS011;7697;51.630;7.484;2022-07-31T20:05:32;3.00;;;2.33;;
15192;SDS011;7697;51.630;7.484;2022-07-31T20:10:36;3.17;;;2.50;;
15192;SDS011;7697;51.630;7.484;2022-07-31T20:15:38;2.50;;;2.30;;
15192;SDS011;7697;51.630;7.484;2022-07-31T20:20:40;2.63;;;2.42;;
15192;SDS011;7697;51.630;7.484;2022-07-31T20:25:43;2.47;;;2.28;;
15192;SDS011;7697;51.630;7.484;2022-07-31T20:30:45;4.22;;;2.58;;
15192;SDS011;7697;51.630;7.484;2022-07-31T20:35:46;3.55;;;3.00;;
15192;SDS011;7697;51.630;7.484;2022-07-31T20:40:51;3.50;;;3.00;;
15192;SDS011;7697;51.630;7.484;2022-07-31T20:45:54;3.03;;;2.72;;
15192;SDS011;7697;51.630;7.484;2022-07-31T20:50:57;2.70;;;2.50;;
15192;SDS011;7697;51.630;7.484;2022-07-31T20:56:01;3.13;;;2.83;;
15192;SDS011;7697;51.630;7.484;2022-07-31T21:01:02;5.32;;;3.47;;
15192;SDS011;7697;51.630;7.484;2022-07-31T21:06:05;3.40;;;3.10;;
15192;SDS011;7697;51.630;7.484;2022-07-31T21:11:08;3.83;;;3.30;;
15192;SDS011;7697;51.630;7.484;2022-07-31T21:16:10;4.53;;;3.70;;
15192;SDS011;7697;51.630;7.484;2022-07-31T21:21:12;4.50;;;3.28;;
15192;SDS011;7697;51.630;7.484;2022-07-31T21:26:15;3.90;;;3.50;;
15192;SDS011;7697;51.630;7.484;2022-07-31T21:31:17;5.28;;;3.88;;
15192;SDS011;7697;51.630;7.484;2022-07-31T21:36:20;4.72;;;3.95;;
15192;SDS011;7697;51.630;7.484;2022-07-31T21:41:23;4.05;;;3.28;;
15192;SDS011;7697;51.630;7.484;2022-07-31T21:46:26;4.43;;;3.70;;
15192;SDS011;7697;51.630;7.484;2022-07-31T21:51:29;5.63;;;4.20;;
15192;SDS011;7697;51.630;7.484;2022-07-31T21:56:33;5.88;;;3.97;;
15192;SDS011;7697;51.630;7.484;2022-07-31T22:01:35;6.47;;;4.18;;
15192;SDS011;7697;51.630;7.484;2022-07-31T22:06:36;5.13;;;4.32;;
15192;SDS011;7697;51.630;7.484;2022-07-31T22:11:56;4.40;;;3.45;;
15192;SDS011;7697;51.630;7.484;2022-07-31T22:16:58;3.88;;;3.50;;
15192;SDS011;7697;51.630;7.484;2022-07-31T22:22:00;3.78;;;3.40;;
15192;SDS011;7697;51.630;7.484;2022-07-31T22:27:04;4.53;;;3.85;;
15192;SDS011;7697;51.630;7.484;2022-07-31T22:32:24;4.07;;;3.70;;
15192;SDS011;7697;51.630;7.484;2022-07-31T22:37:29;3.67;;;3.38;;
15192;SDS011;7697;51.630;7.484;2022-07-31T22:42:33;3.90;;;3.60;;
15192;SDS011;7697;51.630;7.484;2022-07-31T22:47:34;4.55;;;3.97;;
15192;SDS011;7697;51.630;7.484;2022-07-31T22:52:37;5.32;;;4.10;;
15192;SDS011;7697;51.630;7.484;2022-07-31T22:57:40;4.68;;;4.20;;
15192;SDS011;7697;51.630;7.484;2022-07-31T23:02:44;4.95;;;4.40;;
15192;SDS011;7697;51.630;7.484;2022-07-31T23:07:45;6.18;;;4.53;;
15192;SDS011;7697;51.630;7.484;2022-07-31T23:12:48;7.07;;;4.68;;
15192;SDS011;7697;51.630;7.484;2022-07-31T23:17:50;6.65;;;4.72;;
15192;SDS011;7697;51.630;7.484;2022-07-31T23:22:52;5.72;;;4.20;;
15192;SDS011;7697;51.630;7.484;2022-07-31T23:27:55;5.65;;;4.03;;
15192;SDS011;7697;51.630;7.484;2022-07-31T23:32:56;4.57;;;4.18;;
15192;SDS011;7697;51.630;7.484;2022-07-31T23:37:58;6.47;;;5.43;;
15192;SDS011;7697;51.630;7.484;2022-07-31T23:43:01;7.95;;;5.95;;
15192;SDS011;7697;51.630;7.484;2022-07-31T23:48:03;6.53;;;5.60;;
15192;SDS011;7697;51.630;7.484;2022-07-31T23:53:05;6.28;;;5.15;;
15192;SDS011;7697;51.630;7.484;2022-07-31T23:58:08;7.95;;;6.97;;
